createdAt,value
2023-04-11T00:02:01.011Z,46.01
2023-04-11T00:04:27.466Z,45.61
2023-04-11T00:06:53.923Z,46.47
2023-04-11T00:09:20.277Z,46.39
2023-04-11T00:11:46.665Z,47.42
2023-04-11T00:14:13.044Z,46.70
2023-04-11T00:16:39.432Z,47.17
2023-04-11T00:19:05.843Z,46.73
2023-04-11T00:21:32.202Z,47.80
2023-04-11T00:23:58.543Z,47.13
2023-04-11T00:26:24.876Z,46.79
2023-04-11T00:28:51.228Z,46.89
2023-04-11T00:31:17.634Z,46.89
2023-04-11T00:33:43.998Z,46.85
2023-04-11T00:36:10.415Z,47.43
2023-04-11T00:38:36.850Z,46.95
2023-04-11T00:41:03.205Z,46.74
2023-04-11T00:43:29.619Z,46.89
2023-04-11T00:45:56.028Z,48.06
2023-04-11T00:48:22.393Z,47.09
2023-04-11T00:50:48.762Z,47.44
2023-04-11T00:53:15.111Z,47.72
2023-04-11T00:55:41.491Z,47.02
2023-04-11T00:58:07.860Z,46.75
2023-04-11T01:00:34.237Z,47.20
2023-04-11T01:03:00.748Z,47.23
2023-04-11T01:05:27.182Z,47.40
2023-04-11T01:07:53.546Z,47.20
2023-04-11T01:10:19.910Z,47.22
2023-04-11T01:12:46.300Z,47.10
2023-04-11T01:15:12.698Z,47.10
2023-04-11T01:17:39.068Z,47.56
2023-04-11T01:20:05.485Z,48.06
2023-04-11T01:22:31.828Z,47.09
2023-04-11T01:24:58.215Z,47.66
2023-04-11T01:27:24.598Z,48.08
2023-04-11T01:29:51.025Z,48.18
2023-04-11T01:32:17.446Z,48.02
2023-04-11T01:34:43.868Z,48.72
2023-04-11T01:37:10.256Z,48.62
2023-04-11T01:39:36.594Z,48.33
2023-04-11T01:42:02.971Z,47.95
2023-04-11T01:44:29.377Z,48.45
2023-04-11T01:46:55.761Z,49.46
2023-04-11T01:49:22.145Z,49.32
2023-04-11T01:51:48.553Z,49.22
2023-04-11T01:54:14.901Z,49.40
2023-04-11T01:56:41.237Z,50.13
2023-04-11T01:59:08.728Z,49.39
2023-04-11T02:01:35.088Z,50.57
2023-04-11T02:04:01.619Z,50.96
2023-04-11T02:06:28.133Z,52.98
2023-04-11T02:08:54.789Z,54.57
2023-04-11T02:11:21.477Z,54.17
2023-04-11T02:13:47.827Z,54.23
2023-04-11T02:16:14.345Z,53.70
2023-04-11T02:18:40.739Z,54.06
2023-04-11T02:21:07.102Z,53.64
2023-04-11T02:23:33.475Z,53.92
2023-04-11T02:25:59.839Z,54.54
2023-04-11T02:28:26.220Z,53.57
2023-04-11T02:30:52.640Z,54.42
2023-04-11T02:33:19.079Z,53.56
2023-04-11T02:35:45.486Z,53.25
2023-04-11T02:38:11.874Z,53.33
2023-04-11T02:40:38.237Z,53.15
2023-04-11T02:43:04.699Z,53.80
2023-04-11T02:45:31.104Z,53.63
2023-04-11T02:47:57.551Z,53.34
2023-04-11T02:50:23.976Z,53.76
2023-04-11T02:52:50.340Z,55.39
2023-04-11T02:55:16.706Z,55.51
2023-04-11T02:57:43.096Z,56.49
2023-04-11T03:00:09.486Z,57.14
2023-04-11T03:02:35.920Z,58.31
2023-04-11T03:05:02.354Z,58.79
2023-04-11T03:07:28.753Z,58.78
2023-04-11T03:09:55.120Z,59.29
2023-04-11T03:12:21.458Z,59.67
2023-04-11T03:14:47.846Z,58.88
2023-04-11T03:17:14.184Z,59.12
2023-04-11T03:19:40.528Z,59.54
2023-04-11T03:22:06.867Z,59.70
2023-04-11T03:24:33.199Z,58.82
2023-04-11T03:26:59.573Z,59.55
2023-04-11T03:29:25.921Z,59.08
2023-04-11T03:31:52.309Z,59.57
2023-04-11T03:34:18.658Z,60.02
2023-04-11T03:36:45.033Z,60.45
2023-04-11T03:39:11.412Z,60.13
2023-04-11T03:41:37.824Z,60.26
2023-04-11T03:44:04.157Z,60.03
2023-04-11T03:46:30.604Z,60.60
2023-04-11T03:48:57.289Z,60.38
2023-04-11T03:51:23.839Z,60.81
2023-04-11T03:53:50.215Z,59.95
2023-04-11T03:56:16.593Z,59.98
2023-04-11T03:58:42.994Z,60.72
2023-04-11T04:01:09.343Z,60.27
2023-04-11T04:03:35.860Z,60.36
2023-04-11T04:06:02.288Z,60.36
2023-04-11T04:08:28.733Z,60.53
2023-04-11T04:10:55.080Z,60.71
2023-04-11T04:13:21.491Z,60.89
2023-04-11T04:15:47.881Z,61.52
2023-04-11T04:18:14.234Z,61.47
2023-04-11T04:20:40.572Z,61.64
2023-04-11T04:23:06.919Z,61.71
2023-04-11T04:25:33.284Z,61.63
2023-04-11T04:27:59.669Z,62.75
2023-04-11T04:30:26.019Z,62.85
2023-04-11T04:32:52.380Z,63.64
2023-04-11T04:35:18.781Z,64.51
2023-04-11T04:37:45.132Z,64.50
2023-04-11T04:40:11.471Z,65.43
2023-04-11T04:42:37.882Z,65.50
2023-04-11T04:45:04.223Z,65.93
2023-04-11T04:47:30.630Z,65.91
2023-04-11T04:49:57.057Z,66.72
2023-04-11T04:52:23.399Z,67.26
2023-04-11T04:54:49.756Z,67.29
2023-04-11T04:57:16.090Z,66.88
2023-04-11T04:59:42.469Z,67.08
2023-04-11T05:02:08.928Z,67.81
2023-04-11T05:04:35.377Z,67.98
2023-04-11T05:07:01.772Z,67.30
2023-04-11T05:09:28.162Z,68.17
2023-04-11T05:11:54.569Z,68.83
2023-04-11T05:14:20.905Z,68.93
2023-04-11T05:16:47.274Z,69.88
2023-04-11T05:19:13.628Z,70.11
2023-04-11T05:21:40.038Z,69.88
2023-04-11T05:24:06.394Z,70.14
2023-04-11T05:26:32.754Z,73.83
2023-04-11T05:28:59.148Z,74.83
2023-04-11T05:31:25.498Z,74.88
2023-04-11T05:33:51.840Z,74.19
2023-04-11T05:36:18.268Z,75.42
2023-04-11T05:38:44.665Z,74.92
2023-04-11T05:41:11.053Z,73.77
2023-04-11T05:43:37.420Z,73.60
2023-04-11T05:46:03.816Z,74.42
2023-04-11T05:48:30.202Z,72.70
2023-04-11T05:50:56.585Z,73.17
2023-04-11T05:53:22.982Z,72.86
2023-04-11T05:55:49.370Z,73.64
2023-04-11T05:58:15.722Z,73.70
2023-04-11T06:00:42.129Z,71.68
2023-04-11T06:03:08.682Z,71.16
2023-04-11T06:05:35.078Z,69.67
2023-04-11T06:08:01.425Z,69.36
2023-04-11T06:10:27.782Z,68.23
2023-04-11T06:12:54.125Z,68.42
2023-04-11T06:15:20.505Z,67.41
2023-04-11T06:17:47.007Z,68.12
2023-04-11T06:20:16.224Z,67.20
2023-04-11T06:22:42.615Z,67.63
2023-04-11T06:25:08.994Z,68.08
2023-04-11T06:27:35.388Z,67.02
2023-04-11T06:30:01.757Z,67.66
2023-04-11T06:32:28.158Z,66.27
2023-04-11T06:34:54.519Z,66.43
2023-04-11T06:37:20.848Z,66.81
2023-04-11T06:39:47.183Z,65.99
2023-04-11T06:42:13.581Z,66.60
2023-04-11T06:44:40.013Z,64.81
2023-04-11T06:47:06.423Z,65.37
2023-04-11T06:49:32.758Z,66.07
2023-04-11T06:51:59.125Z,66.33
2023-04-11T06:54:25.517Z,66.85
2023-04-11T06:56:51.876Z,67.16
2023-04-11T06:59:18.207Z,67.82
2023-04-11T07:01:44.624Z,67.38
2023-04-11T07:04:11.234Z,67.27
2023-04-11T07:06:37.715Z,67.72
2023-04-11T07:09:04.094Z,67.04
2023-04-11T07:11:30.429Z,67.04
2023-04-11T07:13:57.094Z,64.73
2023-04-11T07:16:23.584Z,65.33
2023-04-11T07:18:49.971Z,64.63
2023-04-11T07:21:16.332Z,65.34
2023-04-11T07:23:42.716Z,64.42
2023-04-11T07:26:09.109Z,64.51
2023-04-11T07:28:35.457Z,64.42
2023-04-11T07:31:01.815Z,64.85
2023-04-11T07:33:28.187Z,64.69
2023-04-11T07:35:54.583Z,65.39
2023-04-11T07:38:21.001Z,64.18
2023-04-11T07:40:47.391Z,64.30
2023-04-11T07:43:13.736Z,64.89
2023-04-11T07:45:40.247Z,64.53
2023-04-11T07:48:06.717Z,63.67
2023-04-11T07:50:33.134Z,63.87
2023-04-11T07:52:59.521Z,63.21
2023-04-11T07:55:25.916Z,61.84
2023-04-11T07:57:52.264Z,62.34
2023-04-11T08:00:18.610Z,62.06
2023-04-11T08:02:45.172Z,62.24
2023-04-11T08:05:11.674Z,61.46
2023-04-11T08:07:38.156Z,61.79
2023-04-11T08:10:04.547Z,62.29
2023-04-11T08:12:30.950Z,61.24
2023-04-11T08:14:57.305Z,60.12
2023-04-11T08:17:28.331Z,60.56
2023-04-11T08:19:55.385Z,60.60
2023-04-11T08:22:21.755Z,60.24
2023-04-11T08:24:48.305Z,59.53
2023-04-11T08:27:14.661Z,60.34
2023-04-11T08:29:40.999Z,60.58
2023-04-11T08:32:07.356Z,60.94
2023-04-11T08:34:33.734Z,61.96
2023-04-11T08:37:00.116Z,61.34
2023-04-11T08:39:26.460Z,61.13
2023-04-11T08:41:52.832Z,61.17
2023-04-11T08:44:19.176Z,60.89
2023-04-11T08:46:45.594Z,61.33
2023-04-11T08:49:11.936Z,60.69
2023-04-11T08:51:38.352Z,60.23
2023-04-11T08:54:04.727Z,60.15
2023-04-11T08:56:31.274Z,59.40
2023-04-11T08:58:57.669Z,59.57
2023-04-11T09:01:24.100Z,58.50
2023-04-11T09:03:50.477Z,59.11
2023-04-11T09:06:16.818Z,58.42
2023-04-11T09:08:43.222Z,59.30
2023-04-11T09:11:09.563Z,58.92
2023-04-11T09:13:35.937Z,58.20
2023-04-11T09:16:02.315Z,57.99
2023-04-11T09:18:28.657Z,56.31
2023-04-11T09:20:54.999Z,56.99
2023-04-11T09:23:21.334Z,54.99
2023-04-11T09:25:47.868Z,56.10
2023-04-11T09:28:14.221Z,54.69
2023-04-11T09:30:40.560Z,55.04
2023-04-11T09:33:06.944Z,53.94
2023-04-11T09:35:33.310Z,54.00
2023-04-11T09:37:59.697Z,53.46
2023-04-11T09:40:26.101Z,54.14
2023-04-11T09:42:52.493Z,53.98
2023-04-11T09:45:18.862Z,54.77
2023-04-11T09:47:45.221Z,54.74
2023-04-11T09:50:11.613Z,54.62
2023-04-11T09:52:37.981Z,54.43
2023-04-11T09:55:04.446Z,53.75
2023-04-11T09:57:30.867Z,53.54
2023-04-11T09:59:57.216Z,55.23
2023-04-11T10:02:23.650Z,54.56
2023-04-11T10:04:50.147Z,54.01
2023-04-11T10:07:16.546Z,53.00
2023-04-11T10:09:42.907Z,52.40
2023-04-11T10:12:09.247Z,53.12
2023-04-11T10:14:35.641Z,52.99
2023-04-11T10:17:02.035Z,53.71
2023-04-11T10:19:28.402Z,53.08
2023-04-11T10:21:54.778Z,54.65
2023-04-11T10:24:21.179Z,54.04
2023-04-11T10:26:47.569Z,53.19
2023-04-11T10:29:14.024Z,53.89
2023-04-11T10:31:40.612Z,53.85
2023-04-11T10:34:07.101Z,53.55
2023-04-11T10:36:33.487Z,52.66
2023-04-11T10:38:59.881Z,53.60
2023-04-11T10:41:26.227Z,53.85
2023-04-11T10:43:52.558Z,53.42
2023-04-11T10:46:18.959Z,54.63
2023-04-11T10:48:45.365Z,53.72
2023-04-11T10:51:11.749Z,55.00
2023-04-11T10:53:38.130Z,54.39
2023-04-11T10:56:04.534Z,54.74
2023-04-11T10:58:30.933Z,54.06
2023-04-11T11:00:57.311Z,54.77
2023-04-11T11:03:23.820Z,53.66
2023-04-11T11:05:50.293Z,53.85
2023-04-11T11:08:16.672Z,54.63
2023-04-11T11:10:43.026Z,54.31
2023-04-11T11:13:09.367Z,53.59
2023-04-11T11:15:35.769Z,54.22
2023-04-11T11:18:02.197Z,55.14
2023-04-11T11:20:28.594Z,53.60
2023-04-11T11:22:55.029Z,54.56
2023-04-11T11:25:21.416Z,53.16
2023-04-11T11:27:47.775Z,52.78
2023-04-11T11:30:14.156Z,53.16
2023-04-11T11:32:40.588Z,52.24
2023-04-11T11:35:06.997Z,50.93
2023-04-11T11:37:33.352Z,52.13
2023-04-11T11:39:59.742Z,52.14
2023-04-11T11:42:26.130Z,53.24
2023-04-11T11:44:52.469Z,52.92
2023-04-11T11:47:18.848Z,51.73
2023-04-11T11:49:45.276Z,52.05
2023-04-11T11:52:11.676Z,53.68
2023-04-11T11:54:38.057Z,53.91
2023-04-11T11:57:04.461Z,54.02
2023-04-11T11:59:30.814Z,54.69
2023-04-11T12:01:57.205Z,53.50
2023-04-11T12:04:23.808Z,53.28
2023-04-11T12:06:50.253Z,52.81
2023-04-11T12:09:16.625Z,53.31
2023-04-11T12:11:43.008Z,53.56
2023-04-11T12:14:09.388Z,53.38
2023-04-11T12:16:35.840Z,52.61
2023-04-11T12:19:02.263Z,51.62
2023-04-11T12:21:28.633Z,53.01
2023-04-11T12:23:55.221Z,52.36
2023-04-11T12:26:21.802Z,53.76
2023-04-11T12:28:48.161Z,52.71
2023-04-11T12:31:14.625Z,52.75
2023-04-11T12:33:41.139Z,51.67
2023-04-11T12:36:07.679Z,51.03
2023-04-11T12:38:34.051Z,51.56
2023-04-11T12:41:26.208Z,51.13
2023-04-11T12:43:46.773Z,50.67
2023-04-11T12:46:13.238Z,50.93
2023-04-11T12:48:39.745Z,50.37
2023-04-11T12:51:06.118Z,51.27
2023-04-11T12:53:32.491Z,50.54
2023-04-11T12:55:58.872Z,50.58
2023-04-11T12:58:25.264Z,48.58
2023-04-11T13:00:51.638Z,49.63
2023-04-11T13:03:18.088Z,50.96
2023-04-11T13:05:44.545Z,50.54
2023-04-11T13:08:11.027Z,51.76
2023-04-11T13:10:37.400Z,52.01
2023-04-11T13:13:17.028Z,51.00
2023-04-11T13:15:44.628Z,51.90
2023-04-11T13:18:11.009Z,51.01
2023-04-11T13:20:37.438Z,51.57
2023-04-11T13:23:03.796Z,52.27
2023-04-11T13:25:30.169Z,51.31
2023-04-11T13:27:56.532Z,52.01
2023-04-11T13:30:22.903Z,51.07
2023-04-11T13:32:52.296Z,50.68
2023-04-11T13:35:18.742Z,50.19
2023-04-11T13:37:45.114Z,49.85
2023-04-11T13:40:11.517Z,48.86
2023-04-11T13:42:37.949Z,49.94
2023-04-11T13:45:04.303Z,49.02
2023-04-11T13:47:30.725Z,49.54
2023-04-11T13:49:57.138Z,49.17
2023-04-11T13:52:23.690Z,49.79
2023-04-11T13:54:50.080Z,49.97
2023-04-11T13:57:16.402Z,53.77
2023-04-11T13:59:42.773Z,56.38
2023-04-11T14:02:09.195Z,57.25
2023-04-11T14:04:35.716Z,56.43
2023-04-11T14:07:02.168Z,54.88
2023-04-11T14:09:28.570Z,56.04
2023-04-11T14:11:55.028Z,54.80
2023-04-11T14:14:21.452Z,56.27
2023-04-11T14:16:47.876Z,56.58
2023-04-11T14:19:14.252Z,54.56
2023-04-11T14:21:40.714Z,53.59
2023-04-11T14:24:07.106Z,55.28
2023-04-11T14:26:33.506Z,55.20
2023-04-11T14:28:59.918Z,55.39
2023-04-11T14:31:26.427Z,55.55
2023-04-11T14:33:52.889Z,55.92
2023-04-11T14:36:19.260Z,57.41
2023-04-11T14:38:45.633Z,54.61
2023-04-11T14:41:11.993Z,54.03
2023-04-11T14:43:38.360Z,55.96
2023-04-11T14:46:04.725Z,53.77
2023-04-11T14:48:31.095Z,52.19
2023-04-11T14:50:57.450Z,52.37
2023-04-11T14:53:23.845Z,52.44
2023-04-11T14:55:50.273Z,50.87
2023-04-11T14:58:16.642Z,49.67
2023-04-11T15:00:43.030Z,49.74
2023-04-11T15:03:09.577Z,48.65
2023-04-11T15:05:36.005Z,48.48
2023-04-11T15:08:02.388Z,48.23
2023-04-11T15:10:28.750Z,47.00
2023-04-11T15:12:55.131Z,49.33
2023-04-11T15:15:21.500Z,50.20
2023-04-11T15:17:47.920Z,48.32
2023-04-11T15:20:14.346Z,46.56
2023-04-11T15:22:41.532Z,45.80
2023-04-11T15:25:08.136Z,45.54
2023-04-11T15:27:34.541Z,47.12
2023-04-11T15:30:00.980Z,46.24
2023-04-11T15:32:27.413Z,45.20
2023-04-11T15:34:53.817Z,45.91
2023-04-11T15:37:20.185Z,44.93
2023-04-11T15:39:46.572Z,46.45
2023-04-11T15:42:13.503Z,44.86
2023-04-11T15:44:40.009Z,43.90
2023-04-11T15:47:06.480Z,46.47
2023-04-11T15:49:32.933Z,45.98
2023-04-11T15:51:59.346Z,43.85
2023-04-11T15:54:25.696Z,45.71
2023-04-11T15:56:52.054Z,45.14
2023-04-11T15:59:18.400Z,45.20
2023-04-11T16:01:44.940Z,45.62
2023-04-11T16:04:11.432Z,45.38
2023-04-11T16:06:37.892Z,46.04
2023-04-11T16:09:04.240Z,45.92
2023-04-11T16:11:30.582Z,46.91
2023-04-11T16:13:57.518Z,44.68
2023-04-11T16:16:24.194Z,45.44
2023-04-11T16:18:50.640Z,45.76
2023-04-11T16:21:16.986Z,45.41
2023-04-11T16:23:43.504Z,45.61
2023-04-11T16:26:09.964Z,45.59
2023-04-11T16:28:36.368Z,45.40
2023-04-11T16:31:02.713Z,44.50
2023-04-11T16:33:29.094Z,45.63
2023-04-11T16:35:55.528Z,45.76
2023-04-11T16:38:21.883Z,44.44
2023-04-11T16:40:48.277Z,46.14
2023-04-11T16:43:14.748Z,46.47
2023-04-11T16:45:41.274Z,46.66
2023-04-11T16:48:07.736Z,45.84
2023-04-11T16:50:34.265Z,46.31
2023-04-11T16:53:00.673Z,46.22
2023-04-11T16:55:27.036Z,45.83
2023-04-11T16:57:53.417Z,46.29
2023-04-11T17:00:19.829Z,46.82
2023-04-11T17:02:46.323Z,46.90
2023-04-11T17:05:12.837Z,46.89
2023-04-11T17:07:39.242Z,47.79
2023-04-11T17:10:05.691Z,47.79
2023-04-11T17:12:32.097Z,47.90
2023-04-11T17:14:58.432Z,48.60
2023-04-11T17:17:24.828Z,48.53
2023-04-11T17:19:51.224Z,48.58
2023-04-11T17:22:17.698Z,48.75
2023-04-11T17:24:44.073Z,49.33
2023-04-11T17:27:10.474Z,51.58
2023-04-11T17:29:36.868Z,51.21
2023-04-11T17:32:03.260Z,54.20
2023-04-11T17:34:29.645Z,52.77
2023-04-11T17:36:56.025Z,53.34
2023-04-11T17:39:22.383Z,51.05
2023-04-11T17:41:48.722Z,51.55
2023-04-11T17:44:15.052Z,52.30
2023-04-11T17:46:41.544Z,52.03
2023-04-11T17:49:07.969Z,52.70
2023-04-11T17:51:34.388Z,51.13
2023-04-11T17:54:01.056Z,50.85
2023-04-11T17:59:11.701Z,51.06
2023-04-11T18:01:38.090Z,52.46
2023-04-11T18:04:04.655Z,51.48
2023-04-11T18:06:31.109Z,51.98
2023-04-11T18:08:57.509Z,51.84
2023-04-11T18:11:23.877Z,52.42
2023-04-11T18:13:54.004Z,51.81
2023-04-11T18:16:20.443Z,53.07
2023-04-11T18:18:46.810Z,52.62
2023-04-11T18:21:13.176Z,53.48
2023-04-11T18:23:39.516Z,52.14
2023-04-11T18:26:05.899Z,53.23
2023-04-11T18:28:32.308Z,52.14
2023-04-11T18:30:58.755Z,52.39
2023-04-11T18:33:25.143Z,52.14
2023-04-11T18:35:51.549Z,53.30
2023-04-11T18:38:18.012Z,53.35
2023-04-11T18:40:44.409Z,54.08
2023-04-11T18:43:10.783Z,53.60
2023-04-11T18:45:39.002Z,53.30
2023-04-11T18:48:06.072Z,53.80
2023-04-11T18:50:32.619Z,52.75
2023-04-11T18:53:04.841Z,54.20
2023-04-11T18:55:32.306Z,54.13
2023-04-11T18:58:00.793Z,55.38
2023-04-11T19:00:27.559Z,54.12
2023-04-11T19:02:54.186Z,54.23
2023-04-11T19:05:20.974Z,54.01
2023-04-11T19:07:47.567Z,52.66
2023-04-11T19:10:13.962Z,52.84
2023-04-11T19:12:40.596Z,55.13
2023-04-11T19:15:07.003Z,54.66
2023-04-11T19:17:33.364Z,55.33
2023-04-11T19:19:59.731Z,56.06
2023-04-11T19:22:26.099Z,56.27
2023-04-11T19:24:52.439Z,55.91
2023-04-11T19:27:18.815Z,56.56
2023-04-11T19:29:45.208Z,56.91
2023-04-11T19:32:11.654Z,57.08
2023-04-11T19:34:38.080Z,57.32
2023-04-11T19:37:04.435Z,57.87
2023-04-11T19:39:30.817Z,58.06
2023-04-11T19:41:57.173Z,59.37
2023-04-11T19:44:23.510Z,59.23
2023-04-11T19:46:49.880Z,59.04
2023-04-11T19:49:16.222Z,59.92
2023-04-11T19:51:42.592Z,60.03
2023-04-11T19:54:08.939Z,59.68
2023-04-11T19:56:35.317Z,59.67
2023-04-11T19:59:01.708Z,59.64
2023-04-11T20:01:28.109Z,60.29
2023-04-11T20:03:54.586Z,59.52
2023-04-11T20:06:21.007Z,58.56
2023-04-11T20:08:47.343Z,58.56
2023-04-11T20:11:13.692Z,59.61
2023-04-11T20:13:40.082Z,60.14
2023-04-11T20:16:06.423Z,60.32
2023-04-11T20:18:32.802Z,60.18
2023-04-11T20:20:59.153Z,60.68
2023-04-11T20:23:25.516Z,60.70
2023-04-11T20:25:51.902Z,60.84
2023-04-11T20:28:18.288Z,61.42
2023-04-11T20:30:44.696Z,61.84
2023-04-11T20:33:11.198Z,61.78
2023-04-11T20:35:37.634Z,61.47
2023-04-11T20:38:04.065Z,61.18
2023-04-11T20:40:30.445Z,60.78
2023-04-11T20:42:56.859Z,60.91
2023-04-11T20:45:23.248Z,61.29
2023-04-11T20:47:49.777Z,61.69
2023-04-11T20:50:16.294Z,61.67
2023-04-11T20:52:42.665Z,61.73
2023-04-11T20:55:09.026Z,61.45
2023-04-11T20:57:35.405Z,61.60
2023-04-11T21:00:01.778Z,61.40
2023-04-11T21:02:28.288Z,59.83
2023-04-11T21:04:54.766Z,59.74
2023-04-11T21:07:21.206Z,59.39
2023-04-11T21:09:47.539Z,59.16
2023-04-11T21:12:13.908Z,59.98
2023-04-11T21:14:40.259Z,61.19
2023-04-11T21:17:06.590Z,60.20
2023-04-11T21:19:32.973Z,59.67
2023-04-11T21:21:59.327Z,59.10
2023-04-11T21:24:25.710Z,59.44
2023-04-11T21:26:52.122Z,59.20
2023-04-11T21:29:18.476Z,59.67
2023-04-11T21:31:44.931Z,60.33
2023-04-11T21:34:11.347Z,61.72
2023-04-11T21:36:37.680Z,61.61
2023-04-11T21:39:04.065Z,62.70
2023-04-11T21:41:30.452Z,62.20
2023-04-11T21:43:57.051Z,62.17
2023-04-11T21:46:23.677Z,61.62
2023-04-11T21:48:51.519Z,60.71
2023-04-11T21:51:17.939Z,61.64
2023-04-11T21:53:44.296Z,62.69
2023-04-11T21:56:10.676Z,61.47
2023-04-11T21:58:37.017Z,61.83
2023-04-11T22:01:03.360Z,61.48
2023-04-11T22:03:29.915Z,61.06
2023-04-11T22:05:56.437Z,60.99
2023-04-11T22:08:22.901Z,61.20
2023-04-11T22:10:49.288Z,61.88
2023-04-11T22:13:15.641Z,61.56
2023-04-11T22:15:42.039Z,60.94
2023-04-11T22:18:08.465Z,61.82
2023-04-11T22:20:34.863Z,62.58
2023-04-11T22:23:01.215Z,62.11
2023-04-11T22:25:27.599Z,61.48
2023-04-11T22:27:53.972Z,61.49
2023-04-11T22:30:20.339Z,61.16
2023-04-11T22:32:46.763Z,62.55
2023-04-11T22:35:13.131Z,62.89
2023-04-11T22:37:39.517Z,61.86
2023-04-11T22:40:05.869Z,62.38
2023-04-11T22:42:32.241Z,62.51
2023-04-11T22:44:58.595Z,62.82
2023-04-11T22:47:24.946Z,62.46
2023-04-11T22:49:51.358Z,62.73
2023-04-11T22:52:17.746Z,62.48
2023-04-11T22:54:44.108Z,62.00
2023-04-11T22:57:10.510Z,61.92
2023-04-11T22:59:36.883Z,60.90
2023-04-11T23:02:03.359Z,61.22
2023-04-11T23:04:29.820Z,60.96
2023-04-11T23:06:56.187Z,62.13
2023-04-11T23:09:22.560Z,61.97
2023-04-11T23:11:49.014Z,62.11
2023-04-11T23:14:15.525Z,63.05
2023-04-11T23:16:42.001Z,63.54
2023-04-11T23:19:08.444Z,63.88
2023-04-11T23:21:34.843Z,64.09
2023-04-11T23:24:01.194Z,64.24
2023-04-11T23:26:27.565Z,64.46
2023-04-11T23:28:53.910Z,64.79
2023-04-11T23:31:20.346Z,65.19
2023-04-11T23:33:46.755Z,64.87
2023-04-11T23:36:13.191Z,65.18
2023-04-11T23:38:39.582Z,65.53
2023-04-11T23:41:06.117Z,65.92
2023-04-11T23:43:32.511Z,65.78
2023-04-11T23:45:58.950Z,65.98
2023-04-11T23:48:25.315Z,66.67
2023-04-11T23:50:51.713Z,66.61
2023-04-11T23:53:18.113Z,66.59
2023-04-11T23:55:44.480Z,66.17
2023-04-11T23:58:10.826Z,66.35
